Aérodrome :
LOGIN :

S'inscrire | Disclaimer

   EN    FR    IT 

 










Légende :    VFR   VFR Marginal   IFR   IFR Intensif   IFR Très Intensif
Visi : 
Plafond : 
>= 8 km
>= 3000ft
5 à 8 km
1000 à 3000 ft
1500m à 5 km
500 à 1000 ft
800 à 1500m
200 à 500 ft
< 800m
< 200 ft
Symboles :   Orages  Brouillard  Fortes neiges  Fortes précipitations  Vent > 20 kt
SIGMETs :   Divers  Orages  Givrage  Turbulence  Onde Orograph.  Cendres Volcan.







- Altitude de l'aérodrome : 412 ft
- Code IATA : ORE
- Voir les cartes d'approche


LFOJ - Orleans

DERNIER METAR :
  • 181800Z AUTO 12006KT 9999 OVC033 05/04 Q1022

METARs EXPIRÉS :
  • 181730Z AUTO 12006KT 9999 FEW036 05/04 Q1022
  • 181700Z AUTO 13008KT CAVOK 06/04 Q1021
  • 181630Z AUTO 13007KT CAVOK 07/04 Q1022
  • 181600Z AUTO 11007KT 9999 SCT026 BKN039 08/05 Q1022
  • 181530Z AUTO 13004KT 070V150 9999 BKN020 BKN025 08/05 Q1022

TAF TAF LFOJ
Valide du 18 à 09h jusqu'au 19 à 09h UTC


180800Z 1809/1909 16006KT 0300 FZFG VV///
TEMPO 1809/1812 2500 BR BKN005
BECMG 1812/1815 9999 NSW
TEMPO 1821/1903 3000 BR
Pas de NOTAMs connus pour ce terrain.



MET'MAP, la Météo Aéronautique d'un coup d'oeil ! - Copyright ORBIFLY Décembre 2007 - Disclaimer

ORBIFLY MET'MAP TEAM :

Programmation & Développement : Alexandra Zaïnal
Conception & Développement : Baudouin d'Aumeries
Co-Programmation & Développement : Marc-Olivier Méhu
Soutien technique & logistique : Manuel Goepfert

Contact : metmap@orbifly.com




SOURCES & CREDITS :

   NOAA